sensor_id;sensor_type;location;lat;lon;timestamp;temperature;humidity
4487;DHT22;2256;48.740;9.106;2023-02-14T00:00:04;-0.20;99.90
4487;DHT22;2256;48.740;9.106;2023-02-14T00:02:31;-0.20;99.90
4487;DHT22;2256;48.740;9.106;2023-02-14T00:05:00;-0.20;99.90
4487;DHT22;2256;48.740;9.106;2023-02-14T00:07:26;-0.30;99.90
4487;DHT22;2256;48.740;9.106;2023-02-14T00:09:53;-0.20;99.90
4487;DHT22;2256;48.740;9.106;2023-02-14T00:12:20;-0.20;99.90
4487;DHT22;2256;48.740;9.106;2023-02-14T00:14:47;-0.20;99.90
4487;DHT22;2256;48.740;9.106;2023-02-14T00:17:46;-0.20;99.90
4487;DHT22;2256;48.740;9.106;2023-02-14T00:20:15;-0.20;99.90
4487;DHT22;2256;48.740;9.106;2023-02-14T00:22:42;-0.10;99.90
4487;DHT22;2256;48.740;9.106;2023-02-14T00:25:09;-0.10;99.90
4487;DHT22;2256;48.740;9.106;2023-02-14T00:27:36;-0.10;99.90
4487;DHT22;2256;48.740;9.106;2023-02-14T00:30:04;-0.20;99.90
4487;DHT22;2256;48.740;9.106;2023-02-14T00:32:31;-0.20;99.90
4487;DHT22;2256;48.740;9.106;2023-02-14T00:34:59;-0.20;99.90
4487;DHT22;2256;48.740;9.106;2023-02-14T00:37:27;-0.20;99.90
4487;DHT22;2256;48.740;9.106;2023-02-14T00:39:54;-0.40;99.90
4487;DHT22;2256;48.740;9.106;2023-02-14T00:42:21;-0.40;99.90
4487;DHT22;2256;48.740;9.106;2023-02-14T00:44:49;-0.50;99.90
4487;DHT22;2256;48.740;9.106;2023-02-14T00:47:15;-0.40;99.90
4487;DHT22;2256;48.740;9.106;2023-02-14T00:49:42;-0.40;99.90
4487;DHT22;2256;48.740;9.106;2023-02-14T00:52:09;-0.30;99.90
4487;DHT22;2256;48.740;9.106;2023-02-14T00:54:37;-0.30;99.90
4487;DHT22;2256;48.740;9.106;2023-02-14T00:57:04;-0.50;99.90
4487;DHT22;2256;48.740;9.106;2023-02-14T00:59:31;-0.60;99.90
4487;DHT22;2256;48.740;9.106;2023-02-14T01:01:58;-0.70;99.90
4487;DHT22;2256;48.740;9.106;2023-02-14T01:04:25;-0.80;99.90
4487;DHT22;2256;48.740;9.106;2023-02-14T01:06:51;-0.90;99.90
4487;DHT22;2256;48.740;9.106;2023-02-14T01:09:18;-0.80;99.90
4487;DHT22;2256;48.740;9.106;2023-02-14T01:11:47;-0.80;99.90
4487;DHT22;2256;48.740;9.106;2023-02-14T01:14:14;-0.70;99.90
4487;DHT22;2256;48.740;9.106;2023-02-14T01:16:40;-0.60;99.90
4487;DHT22;2256;48.740;9.106;2023-02-14T01:19:07;-0.50;99.90
4487;DHT22;2256;48.740;9.106;2023-02-14T01:21:34;-0.50;99.90
4487;DHT22;2256;48.740;9.106;2023-02-14T01:24:03;-0.40;99.90
4487;DHT22;2256;48.740;9.106;2023-02-14T01:26:31;-0.50;99.90
4487;DHT22;2256;48.740;9.106;2023-02-14T01:29:01;-0.40;99.90
4487;DHT22;2256;48.740;9.106;2023-02-14T01:31:30;-0.40;99.90
4487;DHT22;2256;48.740;9.106;2023-02-14T01:33:59;-0.40;99.90
4487;DHT22;2256;48.740;9.106;2023-02-14T01:36:28;-0.40;99.90
4487;DHT22;2256;48.740;9.106;2023-02-14T01:38:57;-0.30;99.90
4487;DHT22;2256;48.740;9.106;2023-02-14T01:41:26;-0.40;99.90
4487;DHT22;2256;48.740;9.106;2023-02-14T01:43:58;-0.30;99.90
4487;DHT22;2256;48.740;9.106;2023-02-14T01:46:29;-0.30;99.90
4487;DHT22;2256;48.740;9.106;2023-02-14T01:49:00;-0.30;99.90
4487;DHT22;2256;48.740;9.106;2023-02-14T01:51:28;-0.40;99.90
4487;DHT22;2256;48.740;9.106;2023-02-14T01:53:56;-0.40;99.90
4487;DHT22;2256;48.740;9.106;2023-02-14T01:56:27;-0.40;99.90
4487;DHT22;2256;48.740;9.106;2023-02-14T01:58:57;-0.40;99.90
4487;DHT22;2256;48.740;9.106;2023-02-14T02:01:28;-0.40;99.90
4487;DHT22;2256;48.740;9.106;2023-02-14T02:03:58;-0.40;99.90
4487;DHT22;2256;48.740;9.106;2023-02-14T02:06:28;-0.40;99.90
4487;DHT22;2256;48.740;9.106;2023-02-14T02:09:02;-0.40;99.90
4487;DHT22;2256;48.740;9.106;2023-02-14T02:11:31;-0.50;99.90
4487;DHT22;2256;48.740;9.106;2023-02-14T02:13:58;-0.50;99.90
4487;DHT22;2256;48.740;9.106;2023-02-14T02:16:39;-0.50;99.90
4487;DHT22;2256;48.740;9.106;2023-02-14T02:19:40;-0.50;99.90
4487;DHT22;2256;48.740;9.106;2023-02-14T02:22:29;-0.50;99.90
4487;DHT22;2256;48.740;9.106;2023-02-14T02:25:06;-0.50;99.90
4487;DHT22;2256;48.740;9.106;2023-02-14T02:27:51;-0.50;99.90
4487;DHT22;2256;48.740;9.106;2023-02-14T02:30:42;-0.50;99.90
4487;DHT22;2256;48.740;9.106;2023-02-14T02:36:54;-0.50;99.90
4487;DHT22;2256;48.740;9.106;2023-02-14T02:39:36;-0.50;99.90
4487;DHT22;2256;48.740;9.106;2023-02-14T02:42:13;-0.50;99.90
4487;DHT22;2256;48.740;9.106;2023-02-14T02:44:52;-0.50;99.90
4487;DHT22;2256;48.740;9.106;2023-02-14T02:47:26;-0.40;99.90
4487;DHT22;2256;48.740;9.106;2023-02-14T02:50:03;-0.40;99.90
4487;DHT22;2256;48.740;9.106;2023-02-14T02:52:54;-0.50;99.90
4487;DHT22;2256;48.740;9.106;2023-02-14T02:55:39;-0.50;99.90
4487;DHT22;2256;48.740;9.106;2023-02-14T02:58:27;-0.40;99.90
4487;DHT22;2256;48.740;9.106;2023-02-14T03:00:57;-0.40;99.90
4487;DHT22;2256;48.740;9.106;2023-02-14T03:03:25;-0.40;99.90
4487;DHT22;2256;48.740;9.106;2023-02-14T03:06:17;-0.40;99.90
4487;DHT22;2256;48.740;9.106;2023-02-14T03:08:45;-0.60;99.90
4487;DHT22;2256;48.740;9.106;2023-02-14T03:11:12;-0.60;99.90
4487;DHT22;2256;48.740;9.106;2023-02-14T03:13:55;-0.60;99.90
4487;DHT22;2256;48.740;9.106;2023-02-14T03:16:42;-0.60;99.90
4487;DHT22;2256;48.740;9.106;2023-02-14T03:19:33;-0.60;99.90
4487;DHT22;2256;48.740;9.106;2023-02-14T03:22:23;-0.50;99.90
4487;DHT22;2256;48.740;9.106;2023-02-14T03:24:58;-0.60;99.90
4487;DHT22;2256;48.740;9.106;2023-02-14T03:27:33;-0.70;99.90
4487;DHT22;2256;48.740;9.106;2023-02-14T03:30:06;-0.70;99.90
4487;DHT22;2256;48.740;9.106;2023-02-14T03:32:38;-0.80;99.90
4487;DHT22;2256;48.740;9.106;2023-02-14T03:35:11;-0.80;99.90
4487;DHT22;2256;48.740;9.106;2023-02-14T03:37:43;-0.90;99.90
4487;DHT22;2256;48.740;9.106;2023-02-14T03:40:17;-0.70;99.90
4487;DHT22;2256;48.740;9.106;2023-02-14T03:42:50;-1.00;99.90
4487;DHT22;2256;48.740;9.106;2023-02-14T03:45:22;-1.10;99.90
4487;DHT22;2256;48.740;9.106;2023-02-14T03:47:54;-1.00;99.90
4487;DHT22;2256;48.740;9.106;2023-02-14T03:50:24;-1.00;99.90
4487;DHT22;2256;48.740;9.106;2023-02-14T03:52:55;-1.00;99.90
4487;DHT22;2256;48.740;9.106;2023-02-14T03:55:31;-1.10;99.90
4487;DHT22;2256;48.740;9.106;2023-02-14T03:58:05;-1.10;99.90
4487;DHT22;2256;48.740;9.106;2023-02-14T04:00:36;-1.00;99.90
4487;DHT22;2256;48.740;9.106;2023-02-14T04:03:08;-1.00;99.90
4487;DHT22;2256;48.740;9.106;2023-02-14T04:05:38;-1.10;99.90
4487;DHT22;2256;48.740;9.106;2023-02-14T04:08:08;-1.00;99.90
4487;DHT22;2256;48.740;9.106;2023-02-14T04:10:37;-0.90;99.90
4487;DHT22;2256;48.740;9.106;2023-02-14T04:13:06;-1.00;99.90
4487;DHT22;2256;48.740;9.106;2023-02-14T04:15:33;-1.10;99.90
4487;DHT22;2256;48.740;9.106;2023-02-14T04:17:59;-1.10;99.90
4487;DHT22;2256;48.740;9.106;2023-02-14T04:20:55;-1.20;99.90
4487;DHT22;2256;48.740;9.106;2023-02-14T04:23:22;-1.00;99.90
4487;DHT22;2256;48.740;9.106;2023-02-14T04:25:50;-1.20;99.90
4487;DHT22;2256;48.740;9.106;2023-02-14T04:28:17;-1.20;99.90
4487;DHT22;2256;48.740;9.106;2023-02-14T04:30:44;-1.20;99.90
4487;DHT22;2256;48.740;9.106;2023-02-14T04:33:10;-1.20;99.90
4487;DHT22;2256;48.740;9.106;2023-02-14T04:35:37;-1.30;99.90
4487;DHT22;2256;48.740;9.106;2023-02-14T04:38:04;-1.20;99.90
4487;DHT22;2256;48.740;9.106;2023-02-14T04:40:31;-1.10;99.90
4487;DHT22;2256;48.740;9.106;2023-02-14T04:43:00;-1.20;99.90
4487;DHT22;2256;48.740;9.106;2023-02-14T04:45:29;-1.20;99.90
4487;DHT22;2256;48.740;9.106;2023-02-14T04:47:56;-1.20;99.90
4487;DHT22;2256;48.740;9.106;2023-02-14T04:50:23;-1.30;99.90
4487;DHT22;2256;48.740;9.106;2023-02-14T04:52:50;-1.30;99.90
4487;DHT22;2256;48.740;9.106;2023-02-14T04:55:17;-1.20;99.90
4487;DHT22;2256;48.740;9.106;2023-02-14T04:57:44;-1.10;99.90
4487;DHT22;2256;48.740;9.106;2023-02-14T05:00:13;-1.00;99.90
4487;DHT22;2256;48.740;9.106;2023-02-14T05:02:40;-0.90;99.90
4487;DHT22;2256;48.740;9.106;2023-02-14T05:05:07;-1.00;99.90
4487;DHT22;2256;48.740;9.106;2023-02-14T05:07:34;-1.10;99.90
4487;DHT22;2256;48.740;9.106;2023-02-14T05:10:01;-1.10;99.90
4487;DHT22;2256;48.740;9.106;2023-02-14T05:12:28;-1.20;99.90
4487;DHT22;2256;48.740;9.106;2023-02-14T05:14:55;-1.20;99.90
4487;DHT22;2256;48.740;9.106;2023-02-14T05:17:23;-1.20;99.90
4487;DHT22;2256;48.740;9.106;2023-02-14T05:19:51;-1.30;99.90
4487;DHT22;2256;48.740;9.106;2023-02-14T05:22:18;-1.30;99.90
4487;DHT22;2256;48.740;9.106;2023-02-14T05:24:45;-1.30;99.90
4487;DHT22;2256;48.740;9.106;2023-02-14T05:27:11;-1.30;99.90
4487;DHT22;2256;48.740;9.106;2023-02-14T05:29:38;-1.30;99.90
4487;DHT22;2256;48.740;9.106;2023-02-14T05:32:05;-1.30;99.90
4487;DHT22;2256;48.740;9.106;2023-02-14T05:34:34;-1.20;99.90
4487;DHT22;2256;48.740;9.106;2023-02-14T05:37:01;-1.10;99.90
4487;DHT22;2256;48.740;9.106;2023-02-14T05:39:29;-1.00;99.90
4487;DHT22;2256;48.740;9.106;2023-02-14T05:41:56;-1.10;99.90
4487;DHT22;2256;48.740;9.106;2023-02-14T05:44:22;-1.10;99.90
4487;DHT22;2256;48.740;9.106;2023-02-14T05:46:49;-1.20;99.90
4487;DHT22;2256;48.740;9.106;2023-02-14T05:49:16;-1.10;99.90
4487;DHT22;2256;48.740;9.106;2023-02-14T05:51:44;-1.00;99.90
4487;DHT22;2256;48.740;9.106;2023-02-14T05:54:11;-1.00;99.90
4487;DHT22;2256;48.740;9.106;2023-02-14T05:56:38;-0.90;99.90
4487;DHT22;2256;48.740;9.106;2023-02-14T05:59:04;-0.80;99.90
4487;DHT22;2256;48.740;9.106;2023-02-14T06:01:31;-0.80;99.90
4487;DHT22;2256;48.740;9.106;2023-02-14T06:03:58;-0.60;99.90
4487;DHT22;2256;48.740;9.106;2023-02-14T06:06:24;-0.50;99.90
4487;DHT22;2256;48.740;9.106;2023-02-14T06:08:52;-0.60;99.90
4487;DHT22;2256;48.740;9.106;2023-02-14T06:11:19;-0.50;99.90
4487;DHT22;2256;48.740;9.106;2023-02-14T06:13:46;-0.60;99.90
4487;DHT22;2256;48.740;9.106;2023-02-14T06:16:13;-0.50;99.90
4487;DHT22;2256;48.740;9.106;2023-02-14T06:18:40;-0.30;99.90
4487;DHT22;2256;48.740;9.106;2023-02-14T06:21:06;-0.20;99.90
4487;DHT22;2256;48.740;9.106;2023-02-14T06:23:33;-0.20;99.90
4487;DHT22;2256;48.740;9.106;2023-02-14T06:26:01;-0.20;99.90
4487;DHT22;2256;48.740;9.106;2023-02-14T06:28:29;-0.10;99.90
4487;DHT22;2256;48.740;9.106;2023-02-14T06:30:56;-0.30;99.90
4487;DHT22;2256;48.740;9.106;2023-02-14T06:33:22;-0.50;99.90
4487;DHT22;2256;48.740;9.106;2023-02-14T06:35:49;-0.60;99.90
4487;DHT22;2256;48.740;9.106;2023-02-14T06:38:18;-0.60;99.90
4487;DHT22;2256;48.740;9.106;2023-02-14T06:40:45;-0.70;99.90
4487;DHT22;2256;48.740;9.106;2023-02-14T06:43:13;-0.60;99.90
4487;DHT22;2256;48.740;9.106;2023-02-14T06:45:40;-0.50;99.90
4487;DHT22;2256;48.740;9.106;2023-02-14T06:48:08;-0.60;99.90
4487;DHT22;2256;48.740;9.106;2023-02-14T06:50:35;-0.70;99.90
4487;DHT22;2256;48.740;9.106;2023-02-14T06:53:02;-0.60;99.90
4487;DHT22;2256;48.740;9.106;2023-02-14T06:55:31;-0.60;99.90
4487;DHT22;2256;48.740;9.106;2023-02-14T06:57:58;-0.50;99.90
4487;DHT22;2256;48.740;9.106;2023-02-14T07:00:26;-0.50;99.90
4487;DHT22;2256;48.740;9.106;2023-02-14T07:02:55;-0.40;99.90
4487;DHT22;2256;48.740;9.106;2023-02-14T07:05:22;-0.40;99.90
4487;DHT22;2256;48.740;9.106;2023-02-14T07:07:50;-0.40;99.90
4487;DHT22;2256;48.740;9.106;2023-02-14T07:10:17;-0.40;99.90
4487;DHT22;2256;48.740;9.106;2023-02-14T07:12:45;-0.20;99.90
4487;DHT22;2256;48.740;9.106;2023-02-14T07:15:12;-0.30;99.90
4487;DHT22;2256;48.740;9.106;2023-02-14T07:17:40;0.00;99.90
4487;DHT22;2256;48.740;9.106;2023-02-14T07:20:08;0.00;99.90
4487;DHT22;2256;48.740;9.106;2023-02-14T07:22:36;0.10;99.90
4487;DHT22;2256;48.740;9.106;2023-02-14T07:25:05;0.20;99.90
4487;DHT22;2256;48.740;9.106;2023-02-14T07:27:32;0.30;99.90
4487;DHT22;2256;48.740;9.106;2023-02-14T07:29:59;0.60;99.90
4487;DHT22;2256;48.740;9.106;2023-02-14T07:32:25;1.00;99.90
4487;DHT22;2256;48.740;9.106;2023-02-14T07:34:53;1.60;99.90
4487;DHT22;2256;48.740;9.106;2023-02-14T07:37:20;2.30;99.90
4487;DHT22;2256;48.740;9.106;2023-02-14T07:39:48;3.00;99.90
4487;DHT22;2256;48.740;9.106;2023-02-14T07:42:15;3.00;99.90
4487;DHT22;2256;48.740;9.106;2023-02-14T07:44:43;3.10;99.90
4487;DHT22;2256;48.740;9.106;2023-02-14T07:47:11;3.00;99.90
4487;DHT22;2256;48.740;9.106;2023-02-14T07:49:37;2.90;99.90
4487;DHT22;2256;48.740;9.106;2023-02-14T07:52:05;3.00;99.90
4487;DHT22;2256;48.740;9.106;2023-02-14T07:54:33;2.90;99.90
4487;DHT22;2256;48.740;9.106;2023-02-14T07:57:00;2.70;99.90
4487;DHT22;2256;48.740;9.106;2023-02-14T07:59:27;2.40;99.90
4487;DHT22;2256;48.740;9.106;2023-02-14T08:01:53;2.40;99.90
4487;DHT22;2256;48.740;9.106;2023-02-14T08:04:20;2.30;99.90
4487;DHT22;2256;48.740;9.106;2023-02-14T08:06:50;2.40;99.90
4487;DHT22;2256;48.740;9.106;2023-02-14T08:09:20;2.40;99.90
4487;DHT22;2256;48.740;9.106;2023-02-14T08:11:50;2.30;99.90
4487;DHT22;2256;48.740;9.106;2023-02-14T08:14:35;2.30;99.90
4487;DHT22;2256;48.740;9.106;2023-02-14T08:17:02;2.40;99.90
4487;DHT22;2256;48.740;9.106;2023-02-14T08:19:29;2.40;99.90
4487;DHT22;2256;48.740;9.106;2023-02-14T08:21:56;2.50;99.90
4487;DHT22;2256;48.740;9.106;2023-02-14T08:24:24;2.40;99.90
4487;DHT22;2256;48.740;9.106;2023-02-14T08:26:51;2.40;99.90
4487;DHT22;2256;48.740;9.106;2023-02-14T08:29:18;2.40;99.90
4487;DHT22;2256;48.740;9.106;2023-02-14T08:31:46;2.60;99.90
4487;DHT22;2256;48.740;9.106;2023-02-14T08:34:13;2.70;99.90
4487;DHT22;2256;48.740;9.106;2023-02-14T08:36:40;3.10;99.90
4487;DHT22;2256;48.740;9.106;2023-02-14T08:39:07;3.30;99.90
4487;DHT22;2256;48.740;9.106;2023-02-14T08:41:36;3.50;99.90
4487;DHT22;2256;48.740;9.106;2023-02-14T08:44:04;3.80;99.90
4487;DHT22;2256;48.740;9.106;2023-02-14T08:46:31;3.70;99.90
4487;DHT22;2256;48.740;9.106;2023-02-14T08:48:58;4.20;99.90
4487;DHT22;2256;48.740;9.106;2023-02-14T08:51:25;5.20;99.90
4487;DHT22;2256;48.740;9.106;2023-02-14T08:53:52;6.70;99.90
4487;DHT22;2256;48.740;9.106;2023-02-14T08:56:20;8.40;99.90
4487;DHT22;2256;48.740;9.106;2023-02-14T08:58:52;10.00;99.90
4487;DHT22;2256;48.740;9.106;2023-02-14T09:01:19;11.10;99.90
4487;DHT22;2256;48.740;9.106;2023-02-14T09:03:46;11.50;99.40
4487;DHT22;2256;48.740;9.106;2023-02-14T09:06:14;12.30;99.00
4487;DHT22;2256;48.740;9.106;2023-02-14T09:08:42;12.70;97.60
4487;DHT22;2256;48.740;9.106;2023-02-14T09:11:11;13.40;96.60
4487;DHT22;2256;48.740;9.106;2023-02-14T09:13:39;14.00;95.90
4487;DHT22;2256;48.740;9.106;2023-02-14T09:16:09;14.80;95.10
4487;DHT22;2256;48.740;9.106;2023-02-14T09:18:36;15.70;93.80
4487;DHT22;2256;48.740;9.106;2023-02-14T09:21:07;16.20;92.20
4487;DHT22;2256;48.740;9.106;2023-02-14T09:23:34;16.50;92.20
4487;DHT22;2256;48.740;9.106;2023-02-14T09:26:02;16.60;90.80
4487;DHT22;2256;48.740;9.106;2023-02-14T09:28:30;15.90;90.70
4487;DHT22;2256;48.740;9.106;2023-02-14T09:30:57;15.70;91.30
4487;DHT22;2256;48.740;9.106;2023-02-14T09:33:30;15.80;91.10
4487;DHT22;2256;48.740;9.106;2023-02-14T09:36:07;16.10;91.10
4487;DHT22;2256;48.740;9.106;2023-02-14T09:38:37;16.50;90.40
4487;DHT22;2256;48.740;9.106;2023-02-14T09:41:05;16.80;89.30
4487;DHT22;2256;48.740;9.106;2023-02-14T09:43:36;16.80;90.20
4487;DHT22;2256;48.740;9.106;2023-02-14T09:46:07;16.90;90.60
4487;DHT22;2256;48.740;9.106;2023-02-14T09:48:40;16.70;90.20
4487;DHT22;2256;48.740;9.106;2023-02-14T09:51:12;16.20;90.40
4487;DHT22;2256;48.740;9.106;2023-02-14T09:53:43;15.20;90.20
4487;DHT22;2256;48.740;9.106;2023-02-14T09:56:16;14.10;91.30
4487;DHT22;2256;48.740;9.106;2023-02-14T09:58:48;13.10;92.40
4487;DHT22;2256;48.740;9.106;2023-02-14T10:01:21;12.40;93.60
4487;DHT22;2256;48.740;9.106;2023-02-14T10:04:14;11.70;93.90
4487;DHT22;2256;48.740;9.106;2023-02-14T10:06:48;10.80;94.90
4487;DHT22;2256;48.740;9.106;2023-02-14T10:12:12;9.50;97.10
4487;DHT22;2256;48.740;9.106;2023-02-14T10:14:40;8.90;98.30
4487;DHT22;2256;48.740;9.106;2023-02-14T10:17:11;8.60;99.00
4487;DHT22;2256;48.740;9.106;2023-02-14T10:19:45;8.30;99.80
4487;DHT22;2256;48.740;9.106;2023-02-14T10:22:16;7.80;99.90
4487;DHT22;2256;48.740;9.106;2023-02-14T10:24:47;7.70;99.90
4487;DHT22;2256;48.740;9.106;2023-02-14T10:27:27;7.60;99.90
4487;DHT22;2256;48.740;9.106;2023-02-14T10:29:55;7.60;99.90
4487;DHT22;2256;48.740;9.106;2023-02-14T10:32:27;7.50;99.90
4487;DHT22;2256;48.740;9.106;2023-02-14T10:34:59;7.30;99.90
4487;DHT22;2256;48.740;9.106;2023-02-14T10:37:36;7.40;99.90
4487;DHT22;2256;48.740;9.106;2023-02-14T10:40:27;7.50;99.90
4487;DHT22;2256;48.740;9.106;2023-02-14T10:43:05;7.40;99.90
4487;DHT22;2256;48.740;9.106;2023-02-14T10:45:40;7.30;99.90
4487;DHT22;2256;48.740;9.106;2023-02-14T10:48:15;7.20;99.90
4487;DHT22;2256;48.740;9.106;2023-02-14T10:50:51;7.20;99.90
4487;DHT22;2256;48.740;9.106;2023-02-14T10:53:26;7.30;99.90
4487;DHT22;2256;48.740;9.106;2023-02-14T10:56:01;7.40;99.90
4487;DHT22;2256;48.740;9.106;2023-02-14T10:58:32;7.60;99.90
4487;DHT22;2256;48.740;9.106;2023-02-14T11:01:02;7.60;99.90
4487;DHT22;2256;48.740;9.106;2023-02-14T11:03:32;7.70;99.90
4487;DHT22;2256;48.740;9.106;2023-02-14T11:06:01;7.70;99.90
4487;DHT22;2256;48.740;9.106;2023-02-14T11:08:31;7.80;99.90
4487;DHT22;2256;48.740;9.106;2023-02-14T11:11:03;7.90;99.90
4487;DHT22;2256;48.740;9.106;2023-02-14T11:13:33;8.00;99.90
4487;DHT22;2256;48.740;9.106;2023-02-14T11:16:02;8.00;99.90
4487;DHT22;2256;48.740;9.106;2023-02-14T11:18:30;8.10;99.90
4487;DHT22;2256;48.740;9.106;2023-02-14T11:21:07;8.30;99.90
4487;DHT22;2256;48.740;9.106;2023-02-14T11:23:37;8.40;99.90
4487;DHT22;2256;48.740;9.106;2023-02-14T11:26:10;8.50;99.90
4487;DHT22;2256;48.740;9.106;2023-02-14T11:28:50;8.50;99.90
4487;DHT22;2256;48.740;9.106;2023-02-14T11:31:27;8.50;99.90
4487;DHT22;2256;48.740;9.106;2023-02-14T11:33:54;8.40;99.90
4487;DHT22;2256;48.740;9.106;2023-02-14T11:36:22;8.20;99.90
4487;DHT22;2256;48.740;9.106;2023-02-14T11:38:55;8.50;99.90
4487;DHT22;2256;48.740;9.106;2023-02-14T11:41:23;8.60;99.90
4487;DHT22;2256;48.740;9.106;2023-02-14T11:43:50;8.50;99.90
4487;DHT22;2256;48.740;9.106;2023-02-14T11:46:25;8.50;99.90
4487;DHT22;2256;48.740;9.106;2023-02-14T11:48:57;8.50;99.90
4487;DHT22;2256;48.740;9.106;2023-02-14T11:51:30;8.70;99.90
4487;DHT22;2256;48.740;9.106;2023-02-14T11:54:00;8.70;99.90
4487;DHT22;2256;48.740;9.106;2023-02-14T11:56:54;8.80;99.90
4487;DHT22;2256;48.740;9.106;2023-02-14T11:59:28;8.90;99.90
4487;DHT22;2256;48.740;9.106;2023-02-14T12:01:59;9.00;99.90
4487;DHT22;2256;48.740;9.106;2023-02-14T12:04:32;8.90;99.90
4487;DHT22;2256;48.740;9.106;2023-02-14T12:07:17;8.80;99.90
4487;DHT22;2256;48.740;9.106;2023-02-14T12:09:45;8.90;99.90
4487;DHT22;2256;48.740;9.106;2023-02-14T12:12:18;8.90;99.90
4487;DHT22;2256;48.740;9.106;2023-02-14T12:14:45;9.10;99.90
4487;DHT22;2256;48.740;9.106;2023-02-14T12:17:22;9.00;99.90
4487;DHT22;2256;48.740;9.106;2023-02-14T12:19:54;9.00;99.90
4487;DHT22;2256;48.740;9.106;2023-02-14T12:22:29;9.20;99.90
4487;DHT22;2256;48.740;9.106;2023-02-14T12:25:02;9.30;99.90
4487;DHT22;2256;48.740;9.106;2023-02-14T12:27:46;9.50;99.90
4487;DHT22;2256;48.740;9.106;2023-02-14T12:30:16;9.60;99.90
4487;DHT22;2256;48.740;9.106;2023-02-14T12:32:46;9.60;99.90
4487;DHT22;2256;48.740;9.106;2023-02-14T12:35:15;9.60;99.90
4487;DHT22;2256;48.740;9.106;2023-02-14T12:37:54;9.50;99.90
4487;DHT22;2256;48.740;9.106;2023-02-14T12:40:31;9.60;99.90
4487;DHT22;2256;48.740;9.106;2023-02-14T12:46:15;9.50;99.90
4487;DHT22;2256;48.740;9.106;2023-02-14T12:48:54;9.60;99.90
4487;DHT22;2256;48.740;9.106;2023-02-14T12:51:29;9.50;99.90
4487;DHT22;2256;48.740;9.106;2023-02-14T12:54:14;9.50;99.90
4487;DHT22;2256;48.740;9.106;2023-02-14T12:56:53;9.60;99.90
4487;DHT22;2256;48.740;9.106;2023-02-14T12:59:28;9.50;99.90
4487;DHT22;2256;48.740;9.106;2023-02-14T13:05:05;9.40;99.90
4487;DHT22;2256;48.740;9.106;2023-02-14T13:07:54;9.60;99.90
4487;DHT22;2256;48.740;9.106;2023-02-14T13:10:37;9.70;99.70
4487;DHT22;2256;48.740;9.106;2023-02-14T13:13:12;9.80;99.50
4487;DHT22;2256;48.740;9.106;2023-02-14T13:15:44;10.00;99.00
4487;DHT22;2256;48.740;9.106;2023-02-14T13:18:21;9.80;99.40
4487;DHT22;2256;48.740;9.106;2023-02-14T13:20:53;10.10;99.00
4487;DHT22;2256;48.740;9.106;2023-02-14T13:23:26;10.10;98.60
4487;DHT22;2256;48.740;9.106;2023-02-14T13:25:59;10.00;98.60
4487;DHT22;2256;48.740;9.106;2023-02-14T13:28:29;9.90;99.50
4487;DHT22;2256;48.740;9.106;2023-02-14T13:30:58;9.90;99.20
4487;DHT22;2256;48.740;9.106;2023-02-14T13:33:29;9.90;99.40
4487;DHT22;2256;48.740;9.106;2023-02-14T13:36:00;10.10;98.70
4487;DHT22;2256;48.740;9.106;2023-02-14T13:38:28;10.00;98.70
4487;DHT22;2256;48.740;9.106;2023-02-14T13:40:59;10.20;98.20
4487;DHT22;2256;48.740;9.106;2023-02-14T13:43:48;10.20;98.20
4487;DHT22;2256;48.740;9.106;2023-02-14T13:46:18;10.20;98.30
4487;DHT22;2256;48.740;9.106;2023-02-14T13:48:57;10.20;98.30
4487;DHT22;2256;48.740;9.106;2023-02-14T13:51:43;10.30;98.60
4487;DHT22;2256;48.740;9.106;2023-02-14T13:54:27;10.50;98.50
4487;DHT22;2256;48.740;9.106;2023-02-14T13:56:56;10.50;97.90
4487;DHT22;2256;48.740;9.106;2023-02-14T13:59:26;10.30;97.80
4487;DHT22;2256;48.740;9.106;2023-02-14T14:01:53;10.30;98.10
4487;DHT22;2256;48.740;9.106;2023-02-14T14:04:35;10.20;98.30
4487;DHT22;2256;48.740;9.106;2023-02-14T14:07:20;10.10;98.40
4487;DHT22;2256;48.740;9.106;2023-02-14T14:10:02;10.10;98.30
4487;DHT22;2256;48.740;9.106;2023-02-14T14:12:42;10.20;98.10
4487;DHT22;2256;48.740;9.106;2023-02-14T14:15:14;10.30;98.10
4487;DHT22;2256;48.740;9.106;2023-02-14T14:17:43;10.30;98.00
4487;DHT22;2256;48.740;9.106;2023-02-14T14:20:29;10.20;98.10
4487;DHT22;2256;48.740;9.106;2023-02-14T14:22:57;10.30;98.10
4487;DHT22;2256;48.740;9.106;2023-02-14T14:25:29;10.30;98.00
4487;DHT22;2256;48.740;9.106;2023-02-14T14:27:58;10.30;98.10
4487;DHT22;2256;48.740;9.106;2023-02-14T14:30:27;10.10;98.40
4487;DHT22;2256;48.740;9.106;2023-02-14T14:33:11;10.10;98.80
4487;DHT22;2256;48.740;9.106;2023-02-14T14:35:38;10.20;98.40
4487;DHT22;2256;48.740;9.106;2023-02-14T14:38:05;10.20;98.60
4487;DHT22;2256;48.740;9.106;2023-02-14T14:40:34;10.00;98.70
4487;DHT22;2256;48.740;9.106;2023-02-14T14:43:08;10.00;98.80
4487;DHT22;2256;48.740;9.106;2023-02-14T14:45:37;9.90;99.20
4487;DHT22;2256;48.740;9.106;2023-02-14T14:48:09;9.90;99.50
4487;DHT22;2256;48.740;9.106;2023-02-14T14:50:37;9.80;99.70
4487;DHT22;2256;48.740;9.106;2023-02-14T14:53:06;9.90;99.50
4487;DHT22;2256;48.740;9.106;2023-02-14T14:55:36;9.90;99.30
4487;DHT22;2256;48.740;9.106;2023-02-14T14:58:10;9.80;99.60
4487;DHT22;2256;48.740;9.106;2023-02-14T15:00:52;9.80;99.70
4487;DHT22;2256;48.740;9.106;2023-02-14T15:03:22;9.80;99.80
4487;DHT22;2256;48.740;9.106;2023-02-14T15:05:50;10.00;99.10
4487;DHT22;2256;48.740;9.106;2023-02-14T15:08:28;10.00;99.00
4487;DHT22;2256;48.740;9.106;2023-02-14T15:11:02;10.10;99.00
4487;DHT22;2256;48.740;9.106;2023-02-14T15:13:36;10.20;98.80
4487;DHT22;2256;48.740;9.106;2023-02-14T15:16:17;10.10;98.80
4487;DHT22;2256;48.740;9.106;2023-02-14T15:18:45;10.10;98.80
4487;DHT22;2256;48.740;9.106;2023-02-14T15:21:12;10.10;98.90
4487;DHT22;2256;48.740;9.106;2023-02-14T15:23:41;10.10;98.90
4487;DHT22;2256;48.740;9.106;2023-02-14T15:26:15;10.10;98.90
4487;DHT22;2256;48.740;9.106;2023-02-14T15:28:53;10.00;98.90
4487;DHT22;2256;48.740;9.106;2023-02-14T15:31:20;10.00;99.10
4487;DHT22;2256;48.740;9.106;2023-02-14T15:33:48;9.90;99.60
4487;DHT22;2256;48.740;9.106;2023-02-14T15:36:17;9.90;99.90
4487;DHT22;2256;48.740;9.106;2023-02-14T15:38:45;9.80;99.90
4487;DHT22;2256;48.740;9.106;2023-02-14T15:41:13;9.70;99.90
4487;DHT22;2256;48.740;9.106;2023-02-14T15:43:41;9.60;99.90
4487;DHT22;2256;48.740;9.106;2023-02-14T15:46:18;9.50;99.90
4487;DHT22;2256;48.740;9.106;2023-02-14T15:48:52;9.40;99.90
4487;DHT22;2256;48.740;9.106;2023-02-14T15:51:22;9.40;99.90
4487;DHT22;2256;48.740;9.106;2023-02-14T15:53:52;9.30;99.90
4487;DHT22;2256;48.740;9.106;2023-02-14T15:56:21;9.20;99.90
4487;DHT22;2256;48.740;9.106;2023-02-14T15:58:56;9.20;99.90
4487;DHT22;2256;48.740;9.106;2023-02-14T16:01:28;9.00;99.90
4487;DHT22;2256;48.740;9.106;2023-02-14T16:03:58;8.90;99.90
4487;DHT22;2256;48.740;9.106;2023-02-14T16:06:34;8.90;99.90
4487;DHT22;2256;48.740;9.106;2023-02-14T16:09:05;8.80;99.90
4487;DHT22;2256;48.740;9.106;2023-02-14T16:11:33;8.70;99.90
4487;DHT22;2256;48.740;9.106;2023-02-14T16:14:19;8.60;99.90
4487;DHT22;2256;48.740;9.106;2023-02-14T16:16:58;8.30;99.90
4487;DHT22;2256;48.740;9.106;2023-02-14T16:19:37;8.20;99.90
4487;DHT22;2256;48.740;9.106;2023-02-14T16:22:04;8.10;99.90
4487;DHT22;2256;48.740;9.106;2023-02-14T16:24:32;8.10;99.90
4487;DHT22;2256;48.740;9.106;2023-02-14T16:27:00;8.00;99.90
4487;DHT22;2256;48.740;9.106;2023-02-14T16:29:31;7.80;99.90
4487;DHT22;2256;48.740;9.106;2023-02-14T16:32:09;7.80;99.90
4487;DHT22;2256;48.740;9.106;2023-02-14T16:34:37;7.70;99.90
4487;DHT22;2256;48.740;9.106;2023-02-14T16:37:06;7.60;99.90
4487;DHT22;2256;48.740;9.106;2023-02-14T16:39:34;7.50;99.90
4487;DHT22;2256;48.740;9.106;2023-02-14T16:42:02;7.40;99.90
4487;DHT22;2256;48.740;9.106;2023-02-14T16:44:29;7.30;99.90